createdAt,value
2018-04-24T00:01:22.309Z,14.70
2018-04-24T00:03:50.736Z,14.70
2018-04-24T00:06:19.182Z,14.70
2018-04-24T00:08:47.614Z,14.60
2018-04-24T00:11:16.077Z,14.30
2018-04-24T00:13:44.509Z,14.40
2018-04-24T00:16:12.934Z,14.30
2018-04-24T00:18:41.357Z,14.40
2018-04-24T00:21:09.791Z,14.30
2018-04-24T00:23:38.285Z,14.40
2018-04-24T00:26:06.872Z,14.00
2018-04-24T00:28:35.434Z,14.00
2018-04-24T00:31:03.636Z,14.20
2018-04-24T00:33:32.843Z,14.20
2018-04-24T00:36:02.026Z,14.40
2018-04-24T00:38:31.234Z,14.40
2018-04-24T00:41:00.428Z,14.30
2018-04-24T00:43:29.633Z,14.20
2018-04-24T00:45:58.087Z,14.20
2018-04-24T00:48:26.531Z,14.20
2018-04-24T00:50:54.957Z,14.20
2018-04-24T00:53:35.357Z,14.20
2018-04-24T00:56:03.908Z,14.20
2018-04-24T00:58:32.401Z,14.30
2018-04-24T01:01:00.831Z,14.20
2018-04-24T01:03:30.234Z,14.00
2018-04-24T01:05:58.674Z,14.00
2018-04-24T01:08:27.125Z,14.00
2018-04-24T01:10:55.567Z,14.00
2018-04-24T01:13:24.938Z,13.90
2018-04-24T01:15:53.377Z,14.00
2018-04-24T01:18:22.233Z,14.10
2018-04-24T01:20:50.677Z,14.10
2018-04-24T01:23:20.117Z,14.00
2018-04-24T01:25:48.318Z,13.90
2018-04-24T01:28:17.755Z,13.70
2018-04-24T01:30:45.843Z,13.70
2018-04-24T01:33:14.274Z,13.90
2018-04-24T01:35:42.719Z,13.90
2018-04-24T01:38:11.146Z,13.70
2018-04-24T01:40:39.600Z,13.80
2018-04-24T01:43:08.996Z,13.60
2018-04-24T01:45:38.404Z,13.40
2018-04-24T01:48:08.308Z,13.40
2018-04-24T01:50:38.064Z,13.50
2018-04-24T01:53:06.508Z,13.50
2018-04-24T01:55:34.946Z,13.40
2018-04-24T01:58:03.387Z,13.50
2018-04-24T02:00:31.819Z,13.40
2018-04-24T02:03:00.269Z,13.20
2018-04-24T02:05:28.712Z,13.40
2018-04-24T02:07:57.196Z,13.50
2018-04-24T02:10:25.404Z,13.30
2018-04-24T02:12:53.829Z,13.20
2018-04-24T02:15:23.125Z,13.30
2018-04-24T02:17:52.319Z,13.20
2018-04-24T02:20:21.526Z,13.20
2018-04-24T02:22:50.733Z,13.20
2018-04-24T02:25:19.164Z,13.20
2018-04-24T02:27:47.613Z,13.20
2018-04-24T02:30:16.049Z,13.20
2018-04-24T02:32:45.019Z,13.30
2018-04-24T02:35:13.450Z,13.30
2018-04-24T02:37:41.897Z,13.40
2018-04-24T02:40:11.103Z,13.40
2018-04-24T02:42:40.311Z,13.20
2018-04-24T02:45:09.713Z,13.20
2018-04-24T02:47:38.857Z,13.40
2018-04-24T02:50:07.493Z,13.30
2018-04-24T02:52:36.240Z,13.20
2018-04-24T02:55:04.345Z,13.30
2018-04-24T02:57:32.781Z,13.20
2018-04-24T03:00:01.226Z,13.20
2018-04-24T03:02:29.661Z,13.30
2018-04-24T03:04:58.884Z,13.00
2018-04-24T03:07:27.636Z,13.00
2018-04-24T03:09:56.830Z,12.80
2018-04-24T03:12:26.044Z,12.80
2018-04-24T03:14:56.270Z,12.70
2018-04-24T03:17:25.472Z,12.80
2018-04-24T03:19:53.900Z,12.80
2018-04-24T03:22:22.360Z,12.70
2018-04-24T03:24:50.788Z,12.60
2018-04-24T03:27:19.989Z,12.60
2018-04-24T03:29:49.204Z,12.60
2018-04-24T03:32:17.900Z,12.60
2018-04-24T03:34:46.344Z,12.60
2018-04-24T03:37:15.537Z,12.50
2018-04-24T03:39:44.758Z,12.50
2018-04-24T03:42:13.184Z,12.50
2018-04-24T03:44:42.384Z,12.50
2018-04-24T03:47:10.831Z,12.50
2018-04-24T03:49:39.257Z,12.20
2018-04-24T03:52:07.705Z,12.10
2018-04-24T03:54:36.207Z,11.80
2018-04-24T03:57:04.639Z,11.90
2018-04-24T03:59:33.073Z,11.90
2018-04-24T04:02:01.583Z,11.90
2018-04-24T04:04:30.153Z,11.80
2018-04-24T04:06:59.544Z,11.70
2018-04-24T04:09:28.748Z,11.80
2018-04-24T04:11:57.943Z,12.00
2018-04-24T04:14:27.143Z,12.00
2018-04-24T04:16:55.665Z,12.00
2018-04-24T04:19:35.418Z,11.90
2018-04-24T04:22:16.631Z,11.80
2018-04-24T04:24:45.973Z,11.60
2018-04-24T04:27:14.397Z,11.60
2018-04-24T04:29:42.849Z,11.70
2018-04-24T04:32:11.270Z,11.80
2018-04-24T04:34:40.471Z,11.20
2018-04-24T04:37:09.452Z,11.20
2018-04-24T04:39:37.891Z,11.10
2018-04-24T04:42:06.673Z,11.40
2018-04-24T04:44:35.094Z,11.30
2018-04-24T04:47:03.533Z,11.40
2018-04-24T04:49:31.965Z,11.30
2018-04-24T04:52:01.173Z,11.50
2018-04-24T04:54:29.606Z,11.50
2018-04-24T04:56:58.189Z,11.70
2018-04-24T04:59:26.626Z,11.80
2018-04-24T05:01:55.093Z,11.80
2018-04-24T05:04:23.535Z,11.90
2018-04-24T05:06:51.629Z,11.90
2018-04-24T05:09:20.845Z,11.90
2018-04-24T05:11:49.279Z,11.90
2018-04-24T05:14:17.711Z,12.00
2018-04-24T05:16:46.144Z,12.00
2018-04-24T05:19:14.597Z,12.00
2018-04-24T05:21:43.249Z,12.00
2018-04-24T05:24:12.682Z,12.10
2018-04-24T05:26:41.295Z,12.20
2018-04-24T05:29:13.121Z,12.20
2018-04-24T05:31:43.977Z,12.30
2018-04-24T05:34:12.682Z,12.30
2018-04-24T05:36:41.292Z,12.30
2018-04-24T05:39:09.718Z,12.30
2018-04-24T05:41:38.872Z,12.50
2018-04-24T05:44:07.974Z,12.60
2018-04-24T05:46:37.062Z,12.70
2018-04-24T05:49:05.505Z,12.80
2018-04-24T05:51:34.709Z,13.00
2018-04-24T05:54:03.155Z,13.00
2018-04-24T05:56:31.582Z,13.00
2018-04-24T05:59:00.033Z,13.10
2018-04-24T06:01:29.233Z,13.20
2018-04-24T06:03:58.459Z,13.30
2018-04-24T06:06:26.888Z,13.30
2018-04-24T06:08:55.343Z,13.30
2018-04-24T06:11:23.777Z,13.20
2018-04-24T06:13:52.196Z,13.30
2018-04-24T06:16:20.636Z,13.30
2018-04-24T06:18:49.083Z,13.30
2018-04-24T06:21:17.545Z,13.50
2018-04-24T06:23:45.649Z,13.60
2018-04-24T06:26:14.858Z,13.50
2018-04-24T06:28:43.351Z,13.50
2018-04-24T06:31:11.999Z,13.50
2018-04-24T06:33:41.222Z,13.40
2018-04-24T06:36:09.818Z,13.40
2018-04-24T06:38:39.142Z,13.30
2018-04-24T06:41:08.446Z,13.50
2018-04-24T06:43:37.560Z,13.70
2018-04-24T06:46:06.395Z,13.90
2018-04-24T06:48:34.836Z,13.80
2018-04-24T06:51:03.267Z,13.70
2018-04-24T06:53:31.698Z,13.80
2018-04-24T06:56:00.900Z,13.90
2018-04-24T06:58:30.123Z,13.90
2018-04-24T07:00:58.546Z,13.90
2018-04-24T07:03:26.975Z,14.00
2018-04-24T07:05:55.406Z,14.00
2018-04-24T07:08:23.853Z,14.00
2018-04-24T07:10:52.285Z,14.10
2018-04-24T07:13:21.480Z,14.10
2018-04-24T07:15:50.677Z,14.10
2018-04-24T07:18:19.867Z,14.10
2018-04-24T07:20:49.075Z,14.10
2018-04-24T07:23:18.272Z,14.20
2018-04-24T07:25:47.478Z,14.30
2018-04-24T07:28:15.900Z,14.30
2018-04-24T07:30:44.370Z,14.30
2018-04-24T07:33:12.811Z,14.30
2018-04-24T07:35:42.090Z,14.40
2018-04-24T07:38:11.339Z,14.40
2018-04-24T07:40:39.822Z,14.40
2018-04-24T07:43:09.023Z,14.50
2018-04-24T07:45:37.509Z,14.60
2018-04-24T07:48:05.615Z,14.50
2018-04-24T07:50:34.808Z,14.50
2018-04-24T07:53:03.236Z,14.50
2018-04-24T07:55:31.668Z,14.60
2018-04-24T07:58:00.877Z,14.70
2018-04-24T08:00:29.317Z,14.60
2018-04-24T08:02:57.742Z,14.60
2018-04-24T08:05:26.946Z,14.70
2018-04-24T08:07:55.385Z,14.70
2018-04-24T08:10:23.829Z,14.80
2018-04-24T08:12:52.268Z,14.80
2018-04-24T08:15:21.481Z,14.80
2018-04-24T08:17:49.912Z,14.80
2018-04-24T08:20:18.341Z,14.90
2018-04-24T08:22:46.829Z,14.90
2018-04-24T08:25:15.409Z,15.00
2018-04-24T08:27:44.033Z,15.00
2018-04-24T08:30:12.236Z,15.00
2018-04-24T08:32:41.437Z,15.10
2018-04-24T08:35:10.847Z,15.30
2018-04-24T08:37:39.309Z,15.30
2018-04-24T08:40:08.595Z,15.30
2018-04-24T08:42:37.186Z,15.30
2018-04-24T08:45:06.459Z,15.30
2018-04-24T08:47:34.922Z,15.30
2018-04-24T08:50:03.348Z,15.30
2018-04-24T08:52:32.567Z,15.30
2018-04-24T08:55:00.996Z,15.30
2018-04-24T08:57:29.443Z,15.20
2018-04-24T08:59:57.865Z,15.20
2018-04-24T09:02:26.289Z,15.30
2018-04-24T09:04:55.414Z,15.40
2018-04-24T09:07:23.861Z,15.40
2018-04-24T09:09:52.290Z,15.60
2018-04-24T09:12:20.731Z,15.50
2018-04-24T09:14:49.158Z,15.50
2018-04-24T09:17:18.136Z,15.40
2018-04-24T09:19:46.554Z,15.50
2018-04-24T09:22:14.994Z,15.50
2018-04-24T09:24:43.463Z,15.70
2018-04-24T09:27:11.978Z,15.70
2018-04-24T09:29:40.304Z,15.60
2018-04-24T09:32:08.725Z,15.60
2018-04-24T09:34:37.572Z,15.80
2018-04-24T09:37:05.996Z,15.70
2018-04-24T09:39:35.196Z,15.90
2018-04-24T09:42:03.644Z,15.90
2018-04-24T09:44:31.871Z,15.90
2018-04-24T09:47:00.493Z,16.00
2018-04-24T09:49:28.999Z,16.10
2018-04-24T09:51:58.324Z,16.00
2018-04-24T09:54:26.803Z,16.00
2018-04-24T09:56:55.294Z,16.00
2018-04-24T09:59:23.898Z,16.10
2018-04-24T10:01:52.358Z,16.20
2018-04-24T10:04:21.721Z,16.20
2018-04-24T10:06:50.689Z,16.30
2018-04-24T10:09:18.885Z,16.30
2018-04-24T10:11:48.109Z,16.30
2018-04-24T10:14:16.552Z,16.30
2018-04-24T10:16:45.754Z,16.30
2018-04-24T10:19:14.966Z,16.40
2018-04-24T10:21:43.399Z,16.30
2018-04-24T10:24:11.842Z,16.40
2018-04-24T10:26:40.268Z,16.40
2018-04-24T10:29:08.712Z,16.50
2018-04-24T10:31:37.275Z,16.50
2018-04-24T10:34:05.712Z,16.50
2018-04-24T10:36:34.138Z,16.70
2018-04-24T10:39:02.608Z,16.70
2018-04-24T10:41:31.019Z,16.70
2018-04-24T10:43:59.444Z,16.80
2018-04-24T10:46:28.659Z,16.90
2018-04-24T10:48:57.080Z,16.90
2018-04-24T10:51:25.582Z,16.90
2018-04-24T10:53:54.895Z,16.90
2018-04-24T10:56:24.096Z,16.90
2018-04-24T10:58:52.956Z,16.90
2018-04-24T11:01:21.434Z,16.90
2018-04-24T11:03:49.862Z,17.00
2018-04-24T11:06:18.306Z,17.10
2018-04-24T11:08:47.505Z,17.10
2018-04-24T11:11:16.716Z,17.00
2018-04-24T11:13:45.911Z,17.10
2018-04-24T12:38:13.175Z,17.10
2018-04-24T12:40:42.575Z,18.00
2018-04-24T12:43:10.997Z,17.90
2018-04-24T12:45:39.822Z,18.10
2018-04-24T12:48:09.782Z,18.20
2018-04-24T12:50:38.228Z,18.20
2018-04-24T12:53:06.660Z,18.30
2018-04-24T12:55:35.105Z,18.20
2018-04-24T12:58:03.534Z,18.30
2018-04-24T13:00:31.974Z,18.30
2018-04-24T13:03:00.416Z,18.30
2018-04-24T13:05:29.622Z,18.30
2018-04-24T13:07:58.114Z,18.30
2018-04-24T13:10:26.529Z,18.30
2018-04-24T13:12:54.971Z,18.30
2018-04-24T13:15:23.190Z,18.30
2018-04-24T13:17:51.613Z,18.30
2018-04-24T13:20:20.037Z,18.30
2018-04-24T13:22:48.471Z,18.30
2018-04-24T13:25:16.909Z,18.30
2018-04-24T13:27:45.077Z,18.30
2018-04-24T13:30:13.511Z,18.30
2018-04-24T13:32:41.952Z,18.40
2018-04-24T13:35:11.141Z,18.40
2018-04-24T13:37:39.608Z,18.40
2018-04-24T13:40:08.189Z,18.40
2018-04-24T13:42:36.726Z,18.50
2018-04-24T13:45:05.154Z,18.50
2018-04-24T13:47:33.618Z,18.50
2018-04-24T13:50:02.064Z,18.40
2018-04-24T13:52:30.489Z,18.50
2018-04-24T13:54:58.938Z,18.60
2018-04-24T13:57:27.404Z,18.60
2018-04-24T13:59:55.847Z,18.60
2018-04-24T14:02:25.053Z,18.80
2018-04-24T14:04:53.501Z,18.80
2018-04-24T14:07:21.970Z,18.90
2018-04-24T14:09:50.424Z,19.10
2018-04-24T14:12:18.903Z,19.30
2018-04-24T14:14:48.253Z,19.40
2018-04-24T14:17:17.466Z,19.30
2018-04-24T14:19:45.905Z,19.30
2018-04-24T14:22:14.334Z,19.20
2018-04-24T14:24:42.790Z,19.20
2018-04-24T14:27:11.983Z,19.40
2018-04-24T14:29:41.183Z,19.40
2018-04-24T14:32:10.377Z,19.50
2018-04-24T14:34:39.586Z,19.50
2018-04-24T14:37:08.578Z,19.50
2018-04-24T14:39:37.791Z,19.70
2018-04-24T14:42:06.205Z,19.90
2018-04-24T14:44:34.639Z,20.00
2018-04-24T14:47:03.236Z,20.10
2018-04-24T14:49:31.656Z,20.10
2018-04-24T14:52:00.097Z,20.10
2018-04-24T14:54:28.530Z,20.10
2018-04-24T14:56:57.786Z,20.00
2018-04-24T14:59:26.218Z,20.00
2018-04-24T15:01:55.421Z,19.90
2018-04-24T15:04:23.852Z,19.90
2018-04-24T15:06:52.295Z,19.90
2018-04-24T15:09:20.722Z,19.90
2018-04-24T15:11:49.161Z,19.80
2018-04-24T15:14:17.591Z,19.90
2018-04-24T15:16:46.806Z,19.60
2018-04-24T15:19:15.248Z,19.60
2018-04-24T15:21:43.674Z,19.70
2018-04-24T15:24:12.115Z,19.70
2018-04-24T15:26:40.590Z,19.60
2018-04-24T15:29:09.957Z,19.70
2018-04-24T15:31:38.985Z,19.70
2018-04-24T15:34:07.422Z,19.50
2018-04-24T15:36:35.860Z,19.50
2018-04-24T15:39:04.182Z,19.20
2018-04-24T15:41:32.615Z,19.20
2018-04-24T15:44:01.814Z,19.30
2018-04-24T15:46:31.023Z,19.30
2018-04-24T15:48:59.443Z,19.30
2018-04-24T15:51:27.884Z,19.30
2018-04-24T15:53:56.312Z,19.20
2018-04-24T15:56:24.739Z,19.30
2018-04-24T15:58:53.159Z,19.20
2018-04-24T16:01:21.597Z,19.20
2018-04-24T16:03:50.029Z,19.00
2018-04-24T16:06:18.482Z,19.00
2018-04-24T16:08:46.908Z,18.90
2018-04-24T16:11:16.311Z,18.90
2018-04-24T16:13:45.697Z,18.70
2018-04-24T16:16:14.407Z,18.70
2018-04-24T16:18:42.857Z,18.80
2018-04-24T16:21:11.271Z,18.70
2018-04-24T16:23:39.730Z,18.70
2018-04-24T16:26:08.923Z,18.50
2018-04-24T16:28:38.362Z,18.50
2018-04-24T16:31:06.729Z,18.50
2018-04-24T16:33:35.158Z,18.40
2018-04-24T16:36:03.602Z,18.40
2018-04-24T16:38:32.041Z,18.30
2018-04-24T16:41:01.247Z,18.20
2018-04-24T16:43:30.297Z,18.10
2018-04-24T16:45:58.489Z,18.20
2018-04-24T16:48:26.946Z,18.20
2018-04-24T16:50:55.372Z,18.30
2018-04-24T16:53:24.568Z,18.10
2018-04-24T16:55:53.771Z,18.10
2018-04-24T16:58:22.206Z,18.10
2018-04-24T17:00:50.730Z,18.00
2018-04-24T17:03:19.269Z,18.00
2018-04-24T17:05:47.690Z,18.00
2018-04-24T17:08:16.107Z,18.00
2018-04-24T17:10:44.536Z,17.80
2018-04-24T17:13:13.729Z,17.80
2018-04-24T17:15:42.940Z,17.60
2018-04-24T17:18:11.381Z,17.60
2018-04-24T17:20:39.808Z,17.70
2018-04-24T17:23:09.120Z,17.70
2018-04-24T17:25:37.615Z,17.70
2018-04-24T17:28:07.513Z,17.60
2018-04-24T17:30:35.940Z,17.60
2018-04-24T17:33:05.150Z,17.40
2018-04-24T17:35:34.348Z,17.30
2018-04-24T17:38:03.216Z,17.30
2018-04-24T17:40:31.955Z,17.30
2018-04-24T17:43:00.441Z,17.30
2018-04-24T17:45:28.869Z,17.30
2018-04-24T17:47:58.082Z,17.20
2018-04-24T17:50:27.269Z,17.10
2018-04-24T17:52:56.484Z,17.00
2018-04-24T17:55:24.914Z,17.00
2018-04-24T17:57:53.341Z,16.90
2018-04-24T18:00:21.793Z,16.60
2018-04-24T18:02:51.239Z,16.50
2018-04-24T18:05:19.703Z,16.50
2018-04-24T18:07:48.160Z,16.40
2018-04-24T18:10:17.365Z,16.30
2018-04-24T18:12:46.570Z,16.30
2018-04-24T18:15:15.005Z,16.30
2018-04-24T18:17:43.440Z,16.20
2018-04-24T18:20:11.905Z,15.80
2018-04-24T18:22:41.099Z,15.40
2018-04-24T18:25:09.669Z,15.40
2018-04-24T18:27:39.843Z,15.10
2018-04-24T18:30:09.166Z,15.10
2018-04-24T18:32:37.640Z,15.10
2018-04-24T18:35:06.105Z,15.00
2018-04-24T18:37:34.972Z,15.10
2018-04-24T18:40:03.394Z,15.00
2018-04-24T18:42:31.832Z,14.70
2018-04-24T18:45:00.534Z,14.60
2018-04-24T18:47:29.786Z,14.60
2018-04-24T18:49:58.617Z,14.60
2018-04-24T18:52:27.855Z,14.70
2018-04-24T18:54:56.822Z,14.60
2018-04-24T18:57:25.266Z,14.60
2018-04-24T18:59:53.709Z,14.70
2018-04-24T19:02:23.146Z,14.90
2018-04-24T19:04:51.648Z,14.90
2018-04-24T19:07:20.278Z,14.90
2018-04-24T19:09:49.465Z,15.00
2018-04-24T19:12:18.668Z,14.90
2018-04-24T19:14:47.869Z,14.90
2018-04-24T19:17:17.071Z,14.80
2018-04-24T19:19:45.497Z,14.80
2018-04-24T19:22:13.923Z,14.80
2018-04-24T19:24:48.614Z,14.70
2018-04-24T19:27:17.058Z,14.70
2018-04-24T19:29:45.492Z,14.60
2018-04-24T19:32:20.222Z,14.60
2018-04-24T19:34:49.773Z,14.50
2018-04-24T19:37:18.261Z,14.50
2018-04-24T19:39:52.237Z,14.50
2018-04-24T19:42:21.533Z,14.40
2018-04-24T19:44:49.967Z,14.40
2018-04-24T19:47:18.395Z,14.30
2018-04-24T19:49:52.234Z,14.10
2018-04-24T19:52:20.651Z,14.10
2018-04-24T19:54:55.252Z,14.20
2018-04-24T19:57:23.673Z,14.20
2018-04-24T19:59:52.086Z,14.20
2018-04-24T20:02:20.852Z,14.30
2018-04-24T20:04:49.346Z,14.30
2018-04-24T20:07:17.769Z,14.30
2018-04-24T20:09:46.969Z,14.20
2018-04-24T20:12:16.424Z,14.00
2018-04-24T20:14:45.689Z,13.80
2018-04-24T20:17:14.297Z,13.80
2018-04-24T20:19:43.439Z,13.90
2018-04-24T20:22:11.926Z,14.00
2018-04-24T20:24:41.145Z,14.10
2018-04-24T20:27:10.049Z,14.10
2018-04-24T20:29:38.467Z,14.10
2018-04-24T20:32:06.968Z,14.00
2018-04-24T20:34:35.605Z,13.80
2018-04-24T20:37:04.080Z,13.60
2018-04-24T20:39:33.280Z,13.70
2018-04-24T20:42:02.484Z,13.80
2018-04-24T20:44:30.923Z,13.80
2018-04-24T20:46:59.595Z,13.90
2018-04-24T20:49:28.830Z,13.70
2018-04-24T20:51:57.798Z,13.70
2018-04-24T20:54:26.013Z,13.70
2018-04-24T20:56:54.682Z,13.60
2018-04-24T20:59:23.157Z,13.80
2018-04-24T21:01:51.334Z,13.80
2018-04-24T21:04:20.520Z,13.80
2018-04-24T21:06:49.730Z,13.60
2018-04-24T21:09:18.945Z,13.70
2018-04-24T21:11:47.387Z,13.70
2018-04-24T21:14:15.820Z,13.70
2018-04-24T21:16:44.028Z,13.70
2018-04-24T21:19:12.448Z,13.70
2018-04-24T21:21:40.892Z,13.70
2018-04-24T21:24:09.321Z,13.60
2018-04-24T21:26:39.012Z,13.60
2018-04-24T21:29:07.708Z,13.60
2018-04-24T21:31:36.153Z,13.60
2018-04-24T21:34:05.363Z,13.20
2018-04-24T21:36:33.792Z,13.20
2018-04-24T21:39:02.218Z,13.10
2018-04-24T21:41:31.438Z,13.20
2018-04-24T21:43:59.861Z,13.20
2018-04-24T21:46:28.281Z,13.20
2018-04-24T21:48:56.717Z,13.10
2018-04-24T21:51:25.148Z,13.20
2018-04-24T21:53:53.593Z,13.10
2018-04-24T21:56:22.807Z,13.20
2018-04-24T21:58:52.014Z,13.00
2018-04-24T22:01:20.453Z,13.00
2018-04-24T22:03:48.864Z,12.90
2018-04-24T22:06:17.310Z,13.00
2018-04-24T22:08:45.735Z,12.80
2018-04-24T22:11:14.190Z,12.80
2018-04-24T22:13:43.380Z,12.70
2018-04-24T22:16:12.555Z,13.00
2018-04-24T22:18:40.997Z,13.00
2018-04-24T22:21:10.352Z,12.90
2018-04-24T22:23:39.748Z,13.00
2018-04-24T22:26:08.192Z,13.10
2018-04-24T22:28:36.624Z,13.10
2018-04-24T22:31:06.428Z,13.00
2018-04-24T22:33:35.649Z,12.90
2018-04-24T22:36:05.040Z,12.60
2018-04-24T22:38:33.454Z,12.60
2018-04-24T22:41:02.733Z,12.50
2018-04-24T22:43:31.150Z,12.50
2018-04-24T22:45:59.600Z,12.50
2018-04-24T22:48:28.015Z,12.50
2018-04-24T22:50:56.428Z,12.70
2018-04-24T22:53:24.861Z,12.70
2018-04-24T22:55:53.089Z,12.80
2018-04-24T22:58:21.545Z,12.90
2018-04-24T23:00:50.736Z,12.90
2018-04-24T23:03:19.915Z,12.90
2018-04-24T23:05:48.359Z,12.80
2018-04-24T23:08:16.790Z,12.80
2018-04-24T23:10:57.191Z,12.70
2018-04-24T23:13:37.032Z,12.70
2018-04-24T23:16:16.666Z,12.80
2018-04-24T23:18:56.432Z,13.00
2018-04-24T23:21:23.701Z,12.90
2018-04-24T23:23:52.145Z,13.00
2018-04-24T23:26:20.233Z,13.00
2018-04-24T23:28:48.651Z,12.90
2018-04-24T23:31:16.426Z,12.80
2018-04-24T23:33:45.618Z,13.00
2018-04-24T23:36:14.824Z,13.00
2018-04-24T23:38:44.017Z,13.10
2018-04-24T23:41:12.884Z,13.10
2018-04-24T23:43:41.336Z,13.10
2018-04-24T23:46:09.809Z,13.10
2018-04-24T23:48:38.221Z,13.10
2018-04-24T23:51:06.659Z,13.00
2018-04-24T23:53:35.097Z,13.00
2018-04-24T23:56:03.960Z,12.80
2018-04-24T23:58:32.400Z,12.80
